createdAt,value
2022-09-25T00:00:15.581Z,0.80
2022-09-25T00:02:46.396Z,1.50
2022-09-25T00:05:14.638Z,0.93
2022-09-25T00:07:44.637Z,1.00
2022-09-25T00:10:15.930Z,0.80
2022-09-25T00:12:45.496Z,1.00
2022-09-25T00:15:14.703Z,0.93
2022-09-25T00:17:45.334Z,0.80
2022-09-25T00:20:15.631Z,0.97
2022-09-25T00:22:44.718Z,0.90
2022-09-25T00:25:16.045Z,0.90
2022-09-25T00:27:45.801Z,0.90
2022-09-25T00:30:26.378Z,0.93
2022-09-25T00:32:55.478Z,1.00
2022-09-25T00:35:24.808Z,0.87
2022-09-25T00:37:55.682Z,0.97
2022-09-25T00:40:26.204Z,1.00
2022-09-25T00:43:03.964Z,0.90
2022-09-25T00:45:34.651Z,0.87
2022-09-25T00:48:18.817Z,0.87
2022-09-25T00:51:01.340Z,1.00
2022-09-25T00:53:42.121Z,0.93
2022-09-25T00:56:15.180Z,0.73
2022-09-25T00:58:44.975Z,1.20
2022-09-25T01:01:20.262Z,1.00
2022-09-25T01:03:56.146Z,1.10
2022-09-25T01:06:32.317Z,1.03
2022-09-25T01:09:08.532Z,1.00
2022-09-25T01:11:46.217Z,0.90
2022-09-25T01:14:25.851Z,1.17
2022-09-25T01:17:15.545Z,1.17
2022-09-25T01:20:03.359Z,1.10
2022-09-25T01:23:00.377Z,0.93
2022-09-25T01:25:46.523Z,1.13
2022-09-25T01:28:53.532Z,0.80
2022-09-25T01:31:34.883Z,0.80
2022-09-25T01:34:15.768Z,0.90
2022-09-25T01:36:54.144Z,1.00
2022-09-25T01:39:36.567Z,1.20
2022-09-25T01:42:14.781Z,1.43
2022-09-25T01:45:05.697Z,1.07
2022-09-25T01:47:45.969Z,0.87
2022-09-25T01:50:23.485Z,0.90
2022-09-25T01:53:05.186Z,1.00
2022-09-25T01:55:43.316Z,0.80
2022-09-25T01:58:23.396Z,0.90
2022-09-25T02:01:03.527Z,0.90
2022-09-25T02:03:44.201Z,1.10
2022-09-25T02:06:24.405Z,0.90
2022-09-25T02:09:02.337Z,1.10
2022-09-25T02:11:39.103Z,0.80
2022-09-25T02:14:16.811Z,0.80
2022-09-25T02:16:54.850Z,1.00
2022-09-25T02:19:44.122Z,0.70
2022-09-25T02:22:24.722Z,0.70
2022-09-25T02:25:04.593Z,0.80
2022-09-25T02:27:35.199Z,0.90
2022-09-25T02:30:05.893Z,1.00
2022-09-25T02:32:36.231Z,0.80
2022-09-25T02:35:10.650Z,0.80
2022-09-25T02:37:44.677Z,0.87
2022-09-25T02:40:15.567Z,0.87
2022-09-25T02:43:07.418Z,0.90
2022-09-25T02:45:44.753Z,1.17
2022-09-25T02:48:33.564Z,0.80
2022-09-25T02:51:19.012Z,0.90
2022-09-25T02:54:05.101Z,0.90
2022-09-25T02:56:45.143Z,0.80
2022-09-25T02:59:33.680Z,0.87
2022-09-25T03:02:06.396Z,0.90
2022-09-25T03:05:04.990Z,0.90
2022-09-25T03:07:55.430Z,1.00
2022-09-25T03:10:26.110Z,1.10
2022-09-25T03:12:55.065Z,1.10
2022-09-25T03:15:26.005Z,0.80
2022-09-25T03:17:55.308Z,1.10
2022-09-25T03:20:27.194Z,1.10
2022-09-25T03:22:55.772Z,1.30
2022-09-25T03:25:25.194Z,0.83
2022-09-25T03:28:01.905Z,0.80
2022-09-25T03:30:35.336Z,1.00
2022-09-25T03:33:05.251Z,0.90
2022-09-25T03:35:40.605Z,0.97
2022-09-25T03:38:13.799Z,1.07
2022-09-25T03:40:45.648Z,1.10
2022-09-25T03:43:15.667Z,1.00
2022-09-25T03:45:45.484Z,1.17
2022-09-25T03:48:14.849Z,1.00
2022-09-25T03:50:53.684Z,1.13
2022-09-25T03:53:35.681Z,0.90
2022-09-25T03:56:08.926Z,1.03
2022-09-25T03:58:36.840Z,0.80
2022-09-25T04:01:06.109Z,0.87
2022-09-25T04:03:43.729Z,0.80
2022-09-25T04:06:23.221Z,1.10
2022-09-25T04:08:56.063Z,1.17
2022-09-25T04:11:25.340Z,1.13
2022-09-25T04:13:57.565Z,1.10
2022-09-25T04:16:27.685Z,1.10
2022-09-25T04:18:56.381Z,1.00
2022-09-25T04:21:26.602Z,1.00
2022-09-25T04:24:13.780Z,0.90
2022-09-25T04:26:46.200Z,1.00
2022-09-25T04:29:15.675Z,0.80
2022-09-25T04:32:05.410Z,0.90
2022-09-25T04:34:35.456Z,1.00
2022-09-25T04:37:06.024Z,1.00
2022-09-25T04:39:53.189Z,0.90
2022-09-25T04:42:34.560Z,1.00
2022-09-25T04:45:05.031Z,0.97
2022-09-25T04:47:36.657Z,0.80
2022-09-25T04:50:04.948Z,0.73
2022-09-25T04:52:38.782Z,0.70
2022-09-25T04:55:07.183Z,0.90
2022-09-25T04:57:57.286Z,0.80
2022-09-25T05:00:27.686Z,0.90
2022-09-25T05:02:56.809Z,0.80
2022-09-25T05:05:34.065Z,0.80
2022-09-25T05:08:06.126Z,0.80
2022-09-25T05:10:36.102Z,0.83
2022-09-25T05:13:25.195Z,0.93
2022-09-25T05:16:06.677Z,0.93
2022-09-25T05:18:35.615Z,0.93
2022-09-25T05:21:06.079Z,1.00
2022-09-25T05:23:36.656Z,0.70
2022-09-25T05:26:13.043Z,0.97
2022-09-25T05:28:45.731Z,0.87
2022-09-25T05:31:16.200Z,0.90
2022-09-25T05:33:46.888Z,0.80
2022-09-25T05:36:27.002Z,1.00
2022-09-25T05:38:57.431Z,0.90
2022-09-25T05:41:26.856Z,0.80
2022-09-25T05:43:56.509Z,0.80
2022-09-25T05:46:29.511Z,1.20
2022-09-25T05:49:08.287Z,0.97
2022-09-25T05:51:45.334Z,0.90
2022-09-25T05:54:16.943Z,0.70
2022-09-25T05:56:45.873Z,0.67
2022-09-25T05:59:16.373Z,1.00
2022-09-25T06:01:47.127Z,0.80
2022-09-25T06:04:15.502Z,1.13
2022-09-25T06:06:46.340Z,0.80
2022-09-25T06:09:16.971Z,1.00
2022-09-25T06:11:47.525Z,0.87
2022-09-25T06:14:16.610Z,1.20
2022-09-25T06:16:54.017Z,1.03
2022-09-25T06:19:33.937Z,1.30
2022-09-25T06:22:05.555Z,1.80
2022-09-25T06:24:36.643Z,1.07
2022-09-25T06:27:07.412Z,1.20
2022-09-25T06:29:35.641Z,0.90
2022-09-25T06:32:06.614Z,1.20
2022-09-25T06:34:35.473Z,1.60
2022-09-25T06:37:05.540Z,1.10
2022-09-25T06:39:37.175Z,1.37
2022-09-25T06:42:08.913Z,1.10
2022-09-25T06:44:44.835Z,1.43
2022-09-25T06:47:18.776Z,1.10
2022-09-25T06:49:54.062Z,1.40
2022-09-25T06:52:25.977Z,1.13
2022-09-25T06:54:57.744Z,0.83
2022-09-25T06:57:26.922Z,1.07
2022-09-25T06:59:55.924Z,1.10
2022-09-25T07:02:44.008Z,1.00
2022-09-25T07:05:16.441Z,1.00
2022-09-25T07:07:52.983Z,1.50
2022-09-25T07:10:33.374Z,1.40
2022-09-25T07:13:07.603Z,1.30
2022-09-25T07:15:36.092Z,0.90
2022-09-25T07:18:11.590Z,0.87
2022-09-25T07:20:45.741Z,0.93
2022-09-25T07:23:17.120Z,1.00
2022-09-25T07:25:54.020Z,1.30
2022-09-25T07:28:25.855Z,0.87
2022-09-25T07:30:55.471Z,1.00
2022-09-25T07:33:25.810Z,1.10
2022-09-25T07:35:56.238Z,0.97
2022-09-25T07:38:29.404Z,0.93
2022-09-25T07:41:03.246Z,0.80
2022-09-25T07:43:35.732Z,0.80
2022-09-25T07:46:13.141Z,0.87
2022-09-25T07:48:54.908Z,0.83
2022-09-25T07:51:27.408Z,0.87
2022-09-25T07:54:11.841Z,1.27
2022-09-25T07:56:44.516Z,0.93
2022-09-25T07:59:15.787Z,1.13
2022-09-25T08:01:49.685Z,1.10
2022-09-25T08:04:26.229Z,0.90
2022-09-25T08:07:04.141Z,0.97
2022-09-25T08:09:35.934Z,0.70
2022-09-25T08:12:15.451Z,0.87
2022-09-25T08:14:47.023Z,0.80
2022-09-25T08:17:24.882Z,1.00
2022-09-25T08:19:56.142Z,0.53
2022-09-25T08:22:26.464Z,0.90
2022-09-25T08:24:55.995Z,0.80
2022-09-25T08:27:27.657Z,0.97
2022-09-25T08:29:56.255Z,0.80
2022-09-25T08:32:26.498Z,0.97
2022-09-25T08:34:56.357Z,1.03
2022-09-25T08:37:26.372Z,0.97
2022-09-25T08:39:56.100Z,0.80
2022-09-25T08:42:35.073Z,0.60
2022-09-25T08:45:43.703Z,0.70
2022-09-25T08:48:44.875Z,0.87
2022-09-25T08:51:16.516Z,0.60
2022-09-25T08:53:46.787Z,0.70
2022-09-25T08:56:28.053Z,0.93
2022-09-25T08:59:16.396Z,0.57
2022-09-25T09:01:55.955Z,0.70
2022-09-25T09:04:35.885Z,0.83
2022-09-25T09:07:31.501Z,0.80
2022-09-25T09:10:24.799Z,0.87
2022-09-25T09:13:17.099Z,1.60
2022-09-25T09:15:55.696Z,1.60
2022-09-25T09:18:35.966Z,0.80
2022-09-25T09:21:16.098Z,0.60
2022-09-25T09:24:06.962Z,0.60
2022-09-25T09:26:46.367Z,0.50
2022-09-25T09:29:35.827Z,0.60
2022-09-25T09:32:27.279Z,0.60
2022-09-25T09:35:12.944Z,0.63
2022-09-25T09:38:07.958Z,0.57
2022-09-25T09:41:16.114Z,0.50
2022-09-25T09:44:05.659Z,0.60
2022-09-25T09:46:56.455Z,0.83
2022-09-25T09:49:38.001Z,0.77
2022-09-25T09:52:17.489Z,0.80
2022-09-25T09:54:54.873Z,0.70
2022-09-25T09:57:35.505Z,0.70
2022-09-25T10:00:07.298Z,0.50
2022-09-25T10:02:48.096Z,0.50
2022-09-25T10:05:35.970Z,0.60
2022-09-25T10:08:06.463Z,0.50
2022-09-25T10:10:40.595Z,0.53
2022-09-25T10:13:55.035Z,0.57
2022-09-25T10:17:00.321Z,0.50
2022-09-25T10:19:52.493Z,0.50
2022-09-25T10:22:40.102Z,0.40
2022-09-25T10:25:16.141Z,0.50
2022-09-25T10:27:48.095Z,0.47
2022-09-25T10:30:34.776Z,0.63
2022-09-25T10:33:14.575Z,0.47
2022-09-25T10:35:49.951Z,0.50
2022-09-25T10:38:36.090Z,0.50
2022-09-25T10:41:15.961Z,0.40
2022-09-25T10:44:07.568Z,0.40
2022-09-25T10:46:55.405Z,0.60
2022-09-25T10:49:45.993Z,0.40
2022-09-25T10:52:25.855Z,0.30
2022-09-25T10:55:25.454Z,0.43
2022-09-25T10:58:15.028Z,0.40
2022-09-25T11:00:58.700Z,0.30
2022-09-25T11:03:34.716Z,0.60
2022-09-25T11:06:07.533Z,0.40
2022-09-25T11:08:46.926Z,0.50
2022-09-25T11:11:35.034Z,0.40
2022-09-25T11:14:13.419Z,0.47
2022-09-25T11:17:46.154Z,0.50
2022-09-25T11:20:34.677Z,0.67
2022-09-25T11:23:24.616Z,0.50
2022-09-25T11:26:35.131Z,0.60
2022-09-25T11:29:16.966Z,0.37
2022-09-25T11:31:56.072Z,0.67
2022-09-25T11:34:35.744Z,0.70
2022-09-25T11:37:14.872Z,0.53
2022-09-25T11:40:17.593Z,0.40
2022-09-25T11:42:55.881Z,0.40
2022-09-25T11:45:36.755Z,0.30
2022-09-25T11:48:24.930Z,0.20
2022-09-25T11:51:06.230Z,0.50
2022-09-25T11:54:07.269Z,0.30
2022-09-25T11:56:55.013Z,0.30
2022-09-25T11:59:45.585Z,0.40
2022-09-25T12:02:42.958Z,0.50
2022-09-25T12:05:42.942Z,0.30
2022-09-25T12:08:36.220Z,0.30
2022-09-25T12:11:15.920Z,0.47
2022-09-25T12:13:55.399Z,0.37
2022-09-25T12:16:45.341Z,0.40
2022-09-25T12:19:36.051Z,0.23
2022-09-25T12:22:16.160Z,0.27
2022-09-25T12:25:05.745Z,0.27
2022-09-25T12:27:55.970Z,0.20
2022-09-25T12:30:37.029Z,0.20
2022-09-25T12:33:40.468Z,0.70
2022-09-25T12:36:16.254Z,0.13
2022-09-25T12:38:56.756Z,0.20
2022-09-25T12:41:44.840Z,0.33
2022-09-25T12:44:27.480Z,0.33
2022-09-25T12:47:07.692Z,0.23
2022-09-25T12:49:45.290Z,0.10
2022-09-25T12:52:26.587Z,0.10
2022-09-25T12:55:06.521Z,0.20
2022-09-25T12:57:45.832Z,0.23
2022-09-25T13:00:24.139Z,0.20
2022-09-25T13:03:06.094Z,0.50
2022-09-25T13:05:45.278Z,0.30
2022-09-25T13:08:27.251Z,0.40
2022-09-25T13:11:06.156Z,0.40
2022-09-25T13:13:45.456Z,0.30
2022-09-25T13:16:17.587Z,0.40
2022-09-25T13:18:56.698Z,0.30
2022-09-25T13:21:37.842Z,0.30
2022-09-25T13:24:16.274Z,0.30
2022-09-25T13:26:52.357Z,0.57
2022-09-25T13:29:28.171Z,0.30
2022-09-25T13:32:08.719Z,0.80
2022-09-25T13:34:48.008Z,0.50
2022-09-25T13:37:18.037Z,0.30
2022-09-25T13:40:08.311Z,0.30
2022-09-25T13:42:47.780Z,0.60
2022-09-25T13:45:37.320Z,0.47
2022-09-25T13:48:16.230Z,0.40
2022-09-25T13:50:47.312Z,0.90
2022-09-25T13:53:36.515Z,0.97
2022-09-25T13:56:36.512Z,1.30
2022-09-25T13:59:26.456Z,0.80
2022-09-25T14:02:05.330Z,1.00
2022-09-25T14:04:37.945Z,0.30
2022-09-25T14:07:25.045Z,0.70
2022-09-25T14:10:08.194Z,0.40
2022-09-25T14:12:48.084Z,0.37
2022-09-25T14:15:44.396Z,0.20
2022-09-25T14:18:25.450Z,0.23
2022-09-25T14:21:06.399Z,0.40
2022-09-25T14:23:56.886Z,0.30
2022-09-25T14:26:36.251Z,0.30
2022-09-25T14:29:17.516Z,0.40
2022-09-25T14:31:56.840Z,0.60
2022-09-25T14:34:57.137Z,0.40
2022-09-25T14:37:47.791Z,0.30
2022-09-25T14:40:26.099Z,0.30
2022-09-25T14:43:20.608Z,0.30
2022-09-25T14:46:10.363Z,0.30
2022-09-25T14:48:48.212Z,0.20
2022-09-25T14:51:43.790Z,0.20
2022-09-25T14:54:26.522Z,0.30
2022-09-25T14:56:57.817Z,0.40
2022-09-25T14:59:42.617Z,0.33
2022-09-25T15:02:18.573Z,0.27
2022-09-25T15:04:47.632Z,0.30
2022-09-25T15:07:28.821Z,0.40
2022-09-25T15:09:59.376Z,0.30
2022-09-25T15:12:33.247Z,0.20
2022-09-25T15:15:16.480Z,0.30
2022-09-25T15:17:52.647Z,0.40
2022-09-25T15:20:25.990Z,0.47
2022-09-25T15:22:58.059Z,0.30
2022-09-25T15:25:30.592Z,0.27
2022-09-25T15:28:03.606Z,0.23
2022-09-25T15:30:42.499Z,0.30
2022-09-25T15:33:30.158Z,0.40
2022-09-25T15:36:06.688Z,0.40
2022-09-25T15:38:56.472Z,0.40
2022-09-25T15:41:28.099Z,0.50
2022-09-25T15:44:19.087Z,0.50
2022-09-25T15:46:56.459Z,0.60
2022-09-25T15:49:32.201Z,0.40
2022-09-25T15:52:06.489Z,0.47
2022-09-25T15:54:37.956Z,0.50
2022-09-25T15:57:16.077Z,0.50
2022-09-25T16:00:07.065Z,0.50
2022-09-25T16:03:08.614Z,0.40
2022-09-25T16:05:39.069Z,0.50
2022-09-25T16:08:36.657Z,0.40
2022-09-25T16:11:28.186Z,0.40
2022-09-25T16:14:23.303Z,0.33
2022-09-25T16:16:57.377Z,0.40
2022-09-25T16:19:35.345Z,0.40
2022-09-25T16:22:26.708Z,0.30
2022-09-25T16:24:59.114Z,0.40
2022-09-25T16:27:36.541Z,0.43
2022-09-25T16:30:07.532Z,0.50
2022-09-25T16:32:38.930Z,0.40
2022-09-25T16:35:26.543Z,0.50
2022-09-25T16:37:57.459Z,0.30
2022-09-25T16:40:28.988Z,0.60
2022-09-25T16:43:01.188Z,0.60
2022-09-25T16:45:35.648Z,0.30
2022-09-25T16:48:32.258Z,0.37
2022-09-25T16:51:07.024Z,0.50
2022-09-25T16:53:37.373Z,0.50
2022-09-25T16:56:13.026Z,0.53
2022-09-25T16:58:53.862Z,0.77
2022-09-25T17:01:28.224Z,0.67
2022-09-25T17:04:08.441Z,0.50
2022-09-25T17:09:28.500Z,0.40
2022-09-25T17:12:08.130Z,0.50
2022-09-25T17:14:37.366Z,0.70
2022-09-25T17:17:15.996Z,0.40
2022-09-25T17:19:48.231Z,0.50
2022-09-25T17:22:18.323Z,0.60
2022-09-25T17:24:48.174Z,0.67
2022-09-25T17:27:17.817Z,1.10
2022-09-25T17:29:48.092Z,0.60
2022-09-25T17:32:17.676Z,0.53
2022-09-25T17:34:47.324Z,0.57
2022-09-25T17:37:18.549Z,0.73
2022-09-25T17:40:00.481Z,0.60
2022-09-25T17:42:35.827Z,0.60
2022-09-25T17:45:37.323Z,0.40
2022-09-25T17:48:15.856Z,0.50
2022-09-25T17:50:54.905Z,0.50
2022-09-25T17:53:36.922Z,0.30
2022-09-25T17:56:12.986Z,0.80
2022-09-25T17:58:46.033Z,0.53
2022-09-25T18:01:24.755Z,0.60
2022-09-25T18:04:05.675Z,0.70
2022-09-25T18:06:36.667Z,0.73
2022-09-25T18:09:08.661Z,0.70
2022-09-25T18:11:37.434Z,0.50
2022-09-25T18:14:13.126Z,0.57
2022-09-25T18:16:48.885Z,1.07
2022-09-25T18:19:36.133Z,1.00
2022-09-25T18:22:25.877Z,1.10
2022-09-25T18:25:08.019Z,0.90
2022-09-25T18:27:45.133Z,1.00
2022-09-25T18:30:24.753Z,1.10
2022-09-25T18:32:56.994Z,1.20
2022-09-25T18:35:27.580Z,1.10
2022-09-25T18:37:59.313Z,0.90
2022-09-25T18:40:29.385Z,1.30
2022-09-25T18:42:59.579Z,0.97
2022-09-25T18:45:28.090Z,0.80
2022-09-25T18:47:57.966Z,1.00
2022-09-25T18:50:32.179Z,0.90
2022-09-25T18:53:08.165Z,0.90
2022-09-25T18:55:48.549Z,1.43
2022-09-25T18:58:17.639Z,1.50
2022-09-25T19:00:48.147Z,0.90
2022-09-25T19:03:17.908Z,0.70
2022-09-25T19:05:58.194Z,0.97
2022-09-25T19:08:27.391Z,1.50
2022-09-25T19:10:58.814Z,0.90
2022-09-25T19:13:29.420Z,0.87
2022-09-25T19:16:03.192Z,1.10
2022-09-25T19:18:44.101Z,0.90
2022-09-25T19:21:25.822Z,0.80
2022-09-25T19:23:57.978Z,0.70
2022-09-25T19:26:37.965Z,1.50
2022-09-25T19:29:07.489Z,1.10
2022-09-25T19:31:39.382Z,1.10
2022-09-25T19:34:11.673Z,1.07
2022-09-25T19:36:47.167Z,1.10
2022-09-25T19:39:28.100Z,1.27
2022-09-25T19:42:04.821Z,0.90
2022-09-25T19:44:37.276Z,0.90
2022-09-25T19:47:08.055Z,1.20
2022-09-25T19:49:47.307Z,1.57
2022-09-25T19:52:21.036Z,1.13
2022-09-25T19:54:48.915Z,1.10
2022-09-25T19:57:19.042Z,0.80
2022-09-25T19:59:52.994Z,0.90
2022-09-25T20:02:28.575Z,1.17
2022-09-25T20:04:57.930Z,0.97
2022-09-25T20:07:29.153Z,0.70
2022-09-25T20:10:07.488Z,1.13
2022-09-25T20:12:45.727Z,0.80
2022-09-25T20:15:17.634Z,1.10
2022-09-25T20:17:48.429Z,0.70
2022-09-25T20:20:17.894Z,1.00
2022-09-25T20:22:57.340Z,0.90
2022-09-25T20:25:28.378Z,0.77
2022-09-25T20:27:59.757Z,0.77
2022-09-25T20:30:29.248Z,0.77
2022-09-25T20:32:57.656Z,1.00
2022-09-25T20:35:28.194Z,0.90
2022-09-25T20:37:57.515Z,0.97
2022-09-25T20:40:28.158Z,0.80
2022-09-25T20:42:56.275Z,0.90
2022-09-25T20:45:28.925Z,0.90
2022-09-25T20:47:59.137Z,0.87
2022-09-25T20:50:27.708Z,1.13
2022-09-25T20:53:07.621Z,1.23
2022-09-25T20:55:40.108Z,1.00
2022-09-25T20:58:08.384Z,1.20
2022-09-25T21:00:39.443Z,1.37
2022-09-25T21:03:07.926Z,1.30
2022-09-25T21:05:39.439Z,1.30
2022-09-25T21:08:08.173Z,1.20
2022-09-25T21:10:47.812Z,1.20
2022-09-25T21:13:17.772Z,1.20
2022-09-25T21:15:58.161Z,1.33
2022-09-25T21:18:27.970Z,1.30
2022-09-25T21:21:01.428Z,1.10
2022-09-25T21:23:38.571Z,1.70
2022-09-25T21:26:14.179Z,1.40
2022-09-25T21:28:57.822Z,1.40
2022-09-25T21:31:33.832Z,1.20
2022-09-25T21:34:06.614Z,1.07
2022-09-25T21:36:38.925Z,1.07
2022-09-25T21:39:08.865Z,0.87
2022-09-25T21:41:41.625Z,1.10
2022-09-25T21:44:16.324Z,1.20
2022-09-25T21:46:56.215Z,1.00
2022-09-25T21:49:28.682Z,0.80
2022-09-25T21:51:58.014Z,1.17
2022-09-25T21:54:28.657Z,0.87
2022-09-25T21:56:57.880Z,0.70
2022-09-25T21:59:27.533Z,1.10
2022-09-25T22:01:58.594Z,0.70
2022-09-25T22:04:28.194Z,0.60
2022-09-25T22:06:58.775Z,0.93
2022-09-25T22:09:33.677Z,1.00
2022-09-25T22:12:07.635Z,0.77
2022-09-25T22:14:39.549Z,0.63
2022-09-25T22:17:09.372Z,0.60
2022-09-25T22:19:37.883Z,1.07
2022-09-25T22:22:07.935Z,1.00
2022-09-25T22:24:38.620Z,1.00
2022-09-25T22:27:07.770Z,0.80
2022-09-25T22:29:37.866Z,0.60
2022-09-25T22:32:09.310Z,0.60
2022-09-25T22:34:38.370Z,0.60
2022-09-25T22:37:07.598Z,0.60
2022-09-25T22:39:37.747Z,0.60
2022-09-25T22:42:07.367Z,0.60
2022-09-25T22:44:39.995Z,0.80
2022-09-25T22:47:09.465Z,1.00
2022-09-25T22:49:38.180Z,0.83
2022-09-25T22:52:08.388Z,0.93
2022-09-25T22:54:40.381Z,1.03
2022-09-25T22:57:08.799Z,1.00
2022-09-25T22:59:37.744Z,1.20
2022-09-25T23:02:09.452Z,1.60
2022-09-25T23:04:38.306Z,1.67
2022-09-25T23:07:08.064Z,1.53
2022-09-25T23:09:38.441Z,1.10
2022-09-25T23:12:09.138Z,0.90
2022-09-25T23:14:38.393Z,0.90
2022-09-25T23:17:09.485Z,0.90
2022-09-25T23:19:37.880Z,0.70
2022-09-25T23:22:07.080Z,0.70
2022-09-25T23:24:38.535Z,0.63
2022-09-25T23:27:08.184Z,0.70
2022-09-25T23:29:37.890Z,0.60
2022-09-25T23:32:13.469Z,0.60
2022-09-25T23:34:45.523Z,0.70
2022-09-25T23:37:28.864Z,0.90
2022-09-25T23:39:59.590Z,0.70
2022-09-25T23:42:27.977Z,0.77
2022-09-25T23:44:58.236Z,0.90
2022-09-25T23:47:29.612Z,0.63
2022-09-25T23:50:02.154Z,0.90
2022-09-25T23:52:37.036Z,0.90
2022-09-25T23:55:08.489Z,0.80
2022-09-25T23:57:38.347Z,0.73
